Aviation Digital Data Service (ADDS)

Output produced by METARs form (1300 UTC 26 March 2019)
found at http://www.aviationweather.gov/metar/data/
 
NZAA 261230Z AUTO 36006KT 330V060 9999 SCT040/// 19/15 Q1022 NOSIG
TAF NZAA 261101Z 2612/2712 02005KT 9999 SCT040 
     BECMG 2622/2700 01015KT 
     FM270900 01005KT 9999 BKN030
       
NZCH 261230Z AUTO 04005KT 9999 NCD 19/15 Q1004 NOSIG
TAF NZCH 261102Z 2612/2712 02005KT 9999 BKN060 
     TEMPO 2612/2618 7000 RA 
     BECMG 2700/2702 32010KT 
     BECMG 2706/2708 18015G25KT 
     BECMG 2709/2711 20008KT
       
TAF NZQN 261013Z 2611/2705 25010KT 9999 -RA BKN060 
     BECMG 2612/2614 VRB02KT 
     BECMG 2620/2622 26012KT
       
NZWN 261230Z AUTO 35024G37KT 9999 OVC017/// 20/17 Q1015 NOSIG
TAF NZWN 261101Z 2612/2712 36025G45KT 9999 BKN018 
     TEMPO 2623/2705 5000 RA BKN014 
     BECMG 2701/2703 36020G30KT 
     FM270700 36015KT 9999 FEW015 
     BECMG 2710/2712 33005KT